sensor_id;sensor_type;location;lat;lon;timestamp;temperature;humidity
14884;DHT22;7534;50.762;7.000;2024-02-21T00:00:21;8.80;78.00
14884;DHT22;7534;50.762;7.000;2024-02-21T00:02:47;8.80;78.20
14884;DHT22;7534;50.762;7.000;2024-02-21T00:05:12;8.70;78.10
14884;DHT22;7534;50.762;7.000;2024-02-21T00:07:38;8.70;78.30
14884;DHT22;7534;50.762;7.000;2024-02-21T00:10:04;8.70;78.50
14884;DHT22;7534;50.762;7.000;2024-02-21T00:12:30;8.70;78.40
14884;DHT22;7534;50.762;7.000;2024-02-21T00:14:56;8.80;78.00
14884;DHT22;7534;50.762;7.000;2024-02-21T00:17:22;8.90;78.30
14884;DHT22;7534;50.762;7.000;2024-02-21T00:19:47;8.80;78.40
14884;DHT22;7534;50.762;7.000;2024-02-21T00:22:13;8.90;78.30
14884;DHT22;7534;50.762;7.000;2024-02-21T00:24:39;8.90;77.90
14884;DHT22;7534;50.762;7.000;2024-02-21T00:27:05;8.90;78.70
14884;DHT22;7534;50.762;7.000;2024-02-21T00:29:31;9.00;77.80
14884;DHT22;7534;50.762;7.000;2024-02-21T00:31:57;8.90;78.10
14884;DHT22;7534;50.762;7.000;2024-02-21T00:34:23;8.80;78.70
14884;DHT22;7534;50.762;7.000;2024-02-21T00:36:49;8.80;79.20
14884;DHT22;7534;50.762;7.000;2024-02-21T00:39:15;8.70;79.30
14884;DHT22;7534;50.762;7.000;2024-02-21T00:41:41;8.70;79.50
14884;DHT22;7534;50.762;7.000;2024-02-21T00:44:07;8.70;79.60
14884;DHT22;7534;50.762;7.000;2024-02-21T00:46:32;8.60;79.70
14884;DHT22;7534;50.762;7.000;2024-02-21T00:48:58;8.70;79.30
14884;DHT22;7534;50.762;7.000;2024-02-21T00:51:24;8.60;79.50
14884;DHT22;7534;50.762;7.000;2024-02-21T00:53:49;8.70;79.10
14884;DHT22;7534;50.762;7.000;2024-02-21T00:56:16;8.70;79.00
14884;DHT22;7534;50.762;7.000;2024-02-21T00:58:42;8.70;79.30
14884;DHT22;7534;50.762;7.000;2024-02-21T01:01:08;8.70;79.00
14884;DHT22;7534;50.762;7.000;2024-02-21T01:03:33;8.80;78.30
14884;DHT22;7534;50.762;7.000;2024-02-21T01:05:59;8.80;78.30
14884;DHT22;7534;50.762;7.000;2024-02-21T01:08:25;8.70;78.50
14884;DHT22;7534;50.762;7.000;2024-02-21T01:10:50;8.70;78.80
14884;DHT22;7534;50.762;7.000;2024-02-21T01:13:16;8.60;79.00
14884;DHT22;7534;50.762;7.000;2024-02-21T01:15:42;8.60;79.30
14884;DHT22;7534;50.762;7.000;2024-02-21T01:18:07;8.50;80.00
14884;DHT22;7534;50.762;7.000;2024-02-21T01:20:33;8.50;80.00
14884;DHT22;7534;50.762;7.000;2024-02-21T01:22:59;8.50;79.70
14884;DHT22;7534;50.762;7.000;2024-02-21T01:25:24;8.50;80.00
14884;DHT22;7534;50.762;7.000;2024-02-21T01:27:50;8.40;80.40
14884;DHT22;7534;50.762;7.000;2024-02-21T01:30:17;8.30;80.80
14884;DHT22;7534;50.762;7.000;2024-02-21T01:32:42;8.10;81.60
14884;DHT22;7534;50.762;7.000;2024-02-21T01:35:08;8.10;82.10
14884;DHT22;7534;50.762;7.000;2024-02-21T01:37:34;8.00;82.50
14884;DHT22;7534;50.762;7.000;2024-02-21T01:39:59;8.00;82.70
14884;DHT22;7534;50.762;7.000;2024-02-21T01:42:25;8.00;82.90
14884;DHT22;7534;50.762;7.000;2024-02-21T01:44:51;8.00;83.00
14884;DHT22;7534;50.762;7.000;2024-02-21T01:47:16;8.00;83.10
14884;DHT22;7534;50.762;7.000;2024-02-21T01:49:43;8.00;83.10
14884;DHT22;7534;50.762;7.000;2024-02-21T01:52:09;8.00;83.30
14884;DHT22;7534;50.762;7.000;2024-02-21T01:54:36;8.00;83.40
14884;DHT22;7534;50.762;7.000;2024-02-21T01:57:03;8.00;83.40
14884;DHT22;7534;50.762;7.000;2024-02-21T01:59:29;8.00;83.60
14884;DHT22;7534;50.762;7.000;2024-02-21T02:01:55;8.00;83.70
14884;DHT22;7534;50.762;7.000;2024-02-21T02:04:22;8.10;83.80
14884;DHT22;7534;50.762;7.000;2024-02-21T02:06:49;8.10;83.80
14884;DHT22;7534;50.762;7.000;2024-02-21T02:09:16;8.10;83.90
14884;DHT22;7534;50.762;7.000;2024-02-21T02:11:43;8.10;83.90
14884;DHT22;7534;50.762;7.000;2024-02-21T02:14:08;8.10;84.10
14884;DHT22;7534;50.762;7.000;2024-02-21T02:16:34;8.10;84.00
14884;DHT22;7534;50.762;7.000;2024-02-21T02:19:00;8.10;84.00
14884;DHT22;7534;50.762;7.000;2024-02-21T02:21:29;8.10;84.00
14884;DHT22;7534;50.762;7.000;2024-02-21T02:23:56;8.10;84.10
14884;DHT22;7534;50.762;7.000;2024-02-21T02:26:22;8.10;83.90
14884;DHT22;7534;50.762;7.000;2024-02-21T02:28:48;8.10;83.70
14884;DHT22;7534;50.762;7.000;2024-02-21T02:31:13;8.20;83.60
14884;DHT22;7534;50.762;7.000;2024-02-21T02:33:39;8.10;83.70
14884;DHT22;7534;50.762;7.000;2024-02-21T02:36:05;8.10;83.90
14884;DHT22;7534;50.762;7.000;2024-02-21T02:38:31;8.10;83.90
14884;DHT22;7534;50.762;7.000;2024-02-21T02:40:57;8.20;84.00
14884;DHT22;7534;50.762;7.000;2024-02-21T02:43:22;8.20;83.80
14884;DHT22;7534;50.762;7.000;2024-02-21T02:45:48;8.20;83.60
14884;DHT22;7534;50.762;7.000;2024-02-21T02:48:14;8.20;83.60
14884;DHT22;7534;50.762;7.000;2024-02-21T02:50:39;8.20;83.70
14884;DHT22;7534;50.762;7.000;2024-02-21T02:53:05;8.10;84.10
14884;DHT22;7534;50.762;7.000;2024-02-21T02:55:31;8.10;84.20
14884;DHT22;7534;50.762;7.000;2024-02-21T02:57:56;8.10;84.20
14884;DHT22;7534;50.762;7.000;2024-02-21T03:00:22;8.20;83.70
14884;DHT22;7534;50.762;7.000;2024-02-21T03:02:49;8.30;82.60
14884;DHT22;7534;50.762;7.000;2024-02-21T03:05:17;8.40;82.60
14884;DHT22;7534;50.762;7.000;2024-02-21T03:07:45;8.40;82.90
14884;DHT22;7534;50.762;7.000;2024-02-21T03:10:11;8.40;82.80
14884;DHT22;7534;50.762;7.000;2024-02-21T03:12:37;8.40;83.00
14884;DHT22;7534;50.762;7.000;2024-02-21T03:15:04;8.30;82.80
14884;DHT22;7534;50.762;7.000;2024-02-21T03:17:30;8.30;82.90
14884;DHT22;7534;50.762;7.000;2024-02-21T03:19:57;8.30;83.00
14884;DHT22;7534;50.762;7.000;2024-02-21T03:22:24;8.30;82.60
14884;DHT22;7534;50.762;7.000;2024-02-21T03:24:49;8.30;82.20
14884;DHT22;7534;50.762;7.000;2024-02-21T03:27:15;8.20;82.30
14884;DHT22;7534;50.762;7.000;2024-02-21T03:29:41;8.00;82.90
14884;DHT22;7534;50.762;7.000;2024-02-21T03:32:07;7.80;83.30
14884;DHT22;7534;50.762;7.000;2024-02-21T03:34:32;7.70;83.80
14884;DHT22;7534;50.762;7.000;2024-02-21T03:36:58;7.50;84.60
14884;DHT22;7534;50.762;7.000;2024-02-21T03:39:24;7.40;85.10
14884;DHT22;7534;50.762;7.000;2024-02-21T03:41:50;7.40;85.70
14884;DHT22;7534;50.762;7.000;2024-02-21T03:44:16;7.40;85.80
14884;DHT22;7534;50.762;7.000;2024-02-21T03:46:42;7.40;85.90
14884;DHT22;7534;50.762;7.000;2024-02-21T03:49:08;7.30;86.20
14884;DHT22;7534;50.762;7.000;2024-02-21T03:51:33;7.20;86.30
14884;DHT22;7534;50.762;7.000;2024-02-21T03:53:59;7.10;86.80
14884;DHT22;7534;50.762;7.000;2024-02-21T03:56:25;7.00;87.30
14884;DHT22;7534;50.762;7.000;2024-02-21T03:58:50;7.00;87.80
14884;DHT22;7534;50.762;7.000;2024-02-21T04:01:16;7.00;88.10
14884;DHT22;7534;50.762;7.000;2024-02-21T04:03:45;7.00;88.50
14884;DHT22;7534;50.762;7.000;2024-02-21T04:06:11;7.00;88.60
14884;DHT22;7534;50.762;7.000;2024-02-21T04:08:37;7.00;88.50
14884;DHT22;7534;50.762;7.000;2024-02-21T04:11:03;7.00;88.40
14884;DHT22;7534;50.762;7.000;2024-02-21T04:13:29;7.10;88.40
14884;DHT22;7534;50.762;7.000;2024-02-21T04:15:54;7.10;88.40
14884;DHT22;7534;50.762;7.000;2024-02-21T04:18:20;7.10;88.40
14884;DHT22;7534;50.762;7.000;2024-02-21T04:20:46;7.10;88.50
14884;DHT22;7534;50.762;7.000;2024-02-21T04:23:13;7.20;88.40
14884;DHT22;7534;50.762;7.000;2024-02-21T04:25:39;7.30;88.00
14884;DHT22;7534;50.762;7.000;2024-02-21T04:28:05;7.30;87.90
14884;DHT22;7534;50.762;7.000;2024-02-21T04:30:30;7.40;87.70
14884;DHT22;7534;50.762;7.000;2024-02-21T04:32:56;7.40;87.40
14884;DHT22;7534;50.762;7.000;2024-02-21T04:35:22;7.40;87.20
14884;DHT22;7534;50.762;7.000;2024-02-21T04:37:48;7.50;86.60
14884;DHT22;7534;50.762;7.000;2024-02-21T04:40:14;7.60;86.20
14884;DHT22;7534;50.762;7.000;2024-02-21T04:42:42;7.60;86.20
14884;DHT22;7534;50.762;7.000;2024-02-21T04:45:08;7.60;85.70
14884;DHT22;7534;50.762;7.000;2024-02-21T04:47:34;7.70;85.40
14884;DHT22;7534;50.762;7.000;2024-02-21T04:50:00;7.70;85.30
14884;DHT22;7534;50.762;7.000;2024-02-21T04:52:25;7.80;84.50
14884;DHT22;7534;50.762;7.000;2024-02-21T04:54:51;7.80;84.20
14884;DHT22;7534;50.762;7.000;2024-02-21T04:57:17;7.80;84.30
14884;DHT22;7534;50.762;7.000;2024-02-21T04:59:44;7.80;84.70
14884;DHT22;7534;50.762;7.000;2024-02-21T05:02:11;7.70;84.90
14884;DHT22;7534;50.762;7.000;2024-02-21T05:04:37;7.70;85.00
14884;DHT22;7534;50.762;7.000;2024-02-21T05:07:04;7.70;85.00
14884;DHT22;7534;50.762;7.000;2024-02-21T05:09:30;7.70;85.20
14884;DHT22;7534;50.762;7.000;2024-02-21T05:11:56;7.60;85.40
14884;DHT22;7534;50.762;7.000;2024-02-21T05:14:23;7.70;85.70
14884;DHT22;7534;50.762;7.000;2024-02-21T05:16:49;7.70;85.90
14884;DHT22;7534;50.762;7.000;2024-02-21T05:19:15;7.70;85.90
14884;DHT22;7534;50.762;7.000;2024-02-21T05:21:40;7.70;85.80
14884;DHT22;7534;50.762;7.000;2024-02-21T05:24:06;7.70;85.90
14884;DHT22;7534;50.762;7.000;2024-02-21T05:26:32;7.80;85.20
14884;DHT22;7534;50.762;7.000;2024-02-21T05:28:57;7.80;84.90
14884;DHT22;7534;50.762;7.000;2024-02-21T05:31:25;7.80;85.00
14884;DHT22;7534;50.762;7.000;2024-02-21T05:33:51;7.80;84.80
14884;DHT22;7534;50.762;7.000;2024-02-21T05:36:16;7.80;84.60
14884;DHT22;7534;50.762;7.000;2024-02-21T05:38:42;7.90;84.40
14884;DHT22;7534;50.762;7.000;2024-02-21T05:41:08;7.90;83.90
14884;DHT22;7534;50.762;7.000;2024-02-21T05:43:33;7.90;83.50
14884;DHT22;7534;50.762;7.000;2024-02-21T05:45:59;7.90;83.30
14884;DHT22;7534;50.762;7.000;2024-02-21T05:48:25;8.00;83.20
14884;DHT22;7534;50.762;7.000;2024-02-21T05:50:51;8.00;83.00
14884;DHT22;7534;50.762;7.000;2024-02-21T05:53:16;8.00;82.90
14884;DHT22;7534;50.762;7.000;2024-02-21T05:55:42;8.00;83.00
14884;DHT22;7534;50.762;7.000;2024-02-21T05:58:08;8.00;83.20
14884;DHT22;7534;50.762;7.000;2024-02-21T06:00:39;8.00;83.30
14884;DHT22;7534;50.762;7.000;2024-02-21T06:03:05;8.00;83.10
14884;DHT22;7534;50.762;7.000;2024-02-21T06:05:31;8.00;82.40
14884;DHT22;7534;50.762;7.000;2024-02-21T06:07:57;8.10;82.20
14884;DHT22;7534;50.762;7.000;2024-02-21T06:10:22;8.10;82.00
14884;DHT22;7534;50.762;7.000;2024-02-21T06:12:48;8.10;81.90
14884;DHT22;7534;50.762;7.000;2024-02-21T06:15:14;8.10;81.40
14884;DHT22;7534;50.762;7.000;2024-02-21T06:17:40;8.10;81.50
14884;DHT22;7534;50.762;7.000;2024-02-21T06:20:06;8.10;81.80
14884;DHT22;7534;50.762;7.000;2024-02-21T06:22:32;8.20;82.00
14884;DHT22;7534;50.762;7.000;2024-02-21T06:24:58;8.10;82.30
14884;DHT22;7534;50.762;7.000;2024-02-21T06:27:24;8.10;82.70
14884;DHT22;7534;50.762;7.000;2024-02-21T06:29:50;8.00;83.10
14884;DHT22;7534;50.762;7.000;2024-02-21T06:32:15;8.00;83.20
14884;DHT22;7534;50.762;7.000;2024-02-21T06:34:41;8.00;83.40
14884;DHT22;7534;50.762;7.000;2024-02-21T06:37:07;8.00;83.30
14884;DHT22;7534;50.762;7.000;2024-02-21T06:39:32;8.00;83.20
14884;DHT22;7534;50.762;7.000;2024-02-21T06:41:58;8.00;83.20
14884;DHT22;7534;50.762;7.000;2024-02-21T06:44:24;8.00;83.10
14884;DHT22;7534;50.762;7.000;2024-02-21T06:46:49;8.00;83.10
14884;DHT22;7534;50.762;7.000;2024-02-21T06:49:15;8.00;83.20
14884;DHT22;7534;50.762;7.000;2024-02-21T06:51:43;8.00;83.30
14884;DHT22;7534;50.762;7.000;2024-02-21T06:54:09;8.00;83.10
14884;DHT22;7534;50.762;7.000;2024-02-21T06:56:36;8.00;82.80
14884;DHT22;7534;50.762;7.000;2024-02-21T06:59:03;8.10;82.70
14884;DHT22;7534;50.762;7.000;2024-02-21T07:01:29;8.10;82.40
14884;DHT22;7534;50.762;7.000;2024-02-21T07:03:55;8.20;82.20
14884;DHT22;7534;50.762;7.000;2024-02-21T07:06:21;8.20;82.40
14884;DHT22;7534;50.762;7.000;2024-02-21T07:08:47;8.20;82.50
14884;DHT22;7534;50.762;7.000;2024-02-21T07:11:13;8.20;82.70
14884;DHT22;7534;50.762;7.000;2024-02-21T07:13:39;8.20;82.70
14884;DHT22;7534;50.762;7.000;2024-02-21T07:16:06;8.30;82.40
14884;DHT22;7534;50.762;7.000;2024-02-21T07:18:32;8.30;82.30
14884;DHT22;7534;50.762;7.000;2024-02-21T07:20:58;8.40;82.00
14884;DHT22;7534;50.762;7.000;2024-02-21T07:23:24;8.40;81.80
14884;DHT22;7534;50.762;7.000;2024-02-21T07:25:50;8.60;81.00
14884;DHT22;7534;50.762;7.000;2024-02-21T07:28:15;8.60;80.30
14884;DHT22;7534;50.762;7.000;2024-02-21T07:30:42;8.70;80.10
14884;DHT22;7534;50.762;7.000;2024-02-21T07:33:08;8.70;80.00
14884;DHT22;7534;50.762;7.000;2024-02-21T07:35:34;8.80;79.50
14884;DHT22;7534;50.762;7.000;2024-02-21T07:38:05;8.80;79.50
14884;DHT22;7534;50.762;7.000;2024-02-21T07:40:31;8.80;79.60
14884;DHT22;7534;50.762;7.000;2024-02-21T07:42:57;8.80;79.60
14884;DHT22;7534;50.762;7.000;2024-02-21T07:45:22;8.80;79.60
14884;DHT22;7534;50.762;7.000;2024-02-21T07:47:50;8.90;79.60
14884;DHT22;7534;50.762;7.000;2024-02-21T07:50:16;8.90;79.90
14884;DHT22;7534;50.762;7.000;2024-02-21T07:52:42;9.00;79.20
14884;DHT22;7534;50.762;7.000;2024-02-21T07:55:08;9.10;78.40
14884;DHT22;7534;50.762;7.000;2024-02-21T07:57:36;9.00;78.60
14884;DHT22;7534;50.762;7.000;2024-02-21T08:00:02;9.10;78.50
14884;DHT22;7534;50.762;7.000;2024-02-21T08:02:29;9.10;78.40
14884;DHT22;7534;50.762;7.000;2024-02-21T08:04:55;9.20;77.70
14884;DHT22;7534;50.762;7.000;2024-02-21T08:07:21;9.30;77.50
14884;DHT22;7534;50.762;7.000;2024-02-21T08:09:46;9.30;77.50
14884;DHT22;7534;50.762;7.000;2024-02-21T08:12:12;9.40;76.90
14884;DHT22;7534;50.762;7.000;2024-02-21T08:14:37;9.50;76.20
14884;DHT22;7534;50.762;7.000;2024-02-21T08:17:03;9.70;74.80
14884;DHT22;7534;50.762;7.000;2024-02-21T08:19:29;9.70;75.10
14884;DHT22;7534;50.762;7.000;2024-02-21T08:21:55;9.80;74.40
14884;DHT22;7534;50.762;7.000;2024-02-21T08:24:21;10.00;74.20
14884;DHT22;7534;50.762;7.000;2024-02-21T08:26:48;10.10;73.50
14884;DHT22;7534;50.762;7.000;2024-02-21T08:29:14;10.30;72.60
14884;DHT22;7534;50.762;7.000;2024-02-21T08:31:39;10.40;71.60
14884;DHT22;7534;50.762;7.000;2024-02-21T08:34:05;10.60;70.10
14884;DHT22;7534;50.762;7.000;2024-02-21T08:36:31;10.90;69.50
14884;DHT22;7534;50.762;7.000;2024-02-21T08:38:58;11.30;68.30
14884;DHT22;7534;50.762;7.000;2024-02-21T08:41:24;11.50;67.40
14884;DHT22;7534;50.762;7.000;2024-02-21T08:43:54;11.70;67.70
14884;DHT22;7534;50.762;7.000;2024-02-21T08:46:20;11.90;66.50
14884;DHT22;7534;50.762;7.000;2024-02-21T08:48:46;12.00;65.00
14884;DHT22;7534;50.762;7.000;2024-02-21T08:51:15;12.00;65.00
14884;DHT22;7534;50.762;7.000;2024-02-21T08:53:40;12.00;64.00
14884;DHT22;7534;50.762;7.000;2024-02-21T08:56:07;12.10;64.20
14884;DHT22;7534;50.762;7.000;2024-02-21T08:58:33;12.00;64.50
14884;DHT22;7534;50.762;7.000;2024-02-21T09:01:00;12.00;63.20
14884;DHT22;7534;50.762;7.000;2024-02-21T09:03:25;12.20;62.90
14884;DHT22;7534;50.762;7.000;2024-02-21T09:05:51;12.40;62.10
14884;DHT22;7534;50.762;7.000;2024-02-21T09:08:17;12.80;60.30
14884;DHT22;7534;50.762;7.000;2024-02-21T09:10:43;13.50;58.70
14884;DHT22;7534;50.762;7.000;2024-02-21T09:13:09;14.00;57.10
14884;DHT22;7534;50.762;7.000;2024-02-21T09:15:35;14.30;56.10
14884;DHT22;7534;50.762;7.000;2024-02-21T09:18:00;14.50;54.90
14884;DHT22;7534;50.762;7.000;2024-02-21T09:20:26;14.30;54.50
14884;DHT22;7534;50.762;7.000;2024-02-21T09:22:52;14.30;55.90
14884;DHT22;7534;50.762;7.000;2024-02-21T09:25:18;14.50;54.50
14884;DHT22;7534;50.762;7.000;2024-02-21T09:27:45;14.20;55.50
14884;DHT22;7534;50.762;7.000;2024-02-21T09:30:12;13.90;55.50
14884;DHT22;7534;50.762;7.000;2024-02-21T09:32:38;13.50;56.20
14884;DHT22;7534;50.762;7.000;2024-02-21T09:35:04;13.40;57.10
14884;DHT22;7534;50.762;7.000;2024-02-21T09:37:33;13.20;57.60
14884;DHT22;7534;50.762;7.000;2024-02-21T09:39:59;13.10;57.90
14884;DHT22;7534;50.762;7.000;2024-02-21T09:42:37;13.10;58.70
14884;DHT22;7534;50.762;7.000;2024-02-21T09:45:11;13.20;57.20
14884;DHT22;7534;50.762;7.000;2024-02-21T09:48:06;13.30;58.40
14884;DHT22;7534;50.762;7.000;2024-02-21T09:51:02;13.40;57.70
14884;DHT22;7534;50.762;7.000;2024-02-21T09:53:31;13.70;57.10
14884;DHT22;7534;50.762;7.000;2024-02-21T09:55:58;13.80;56.50
14884;DHT22;7534;50.762;7.000;2024-02-21T09:58:26;14.00;55.70
14884;DHT22;7534;50.762;7.000;2024-02-21T10:00:52;14.00;54.60
14884;DHT22;7534;50.762;7.000;2024-02-21T10:03:18;14.20;54.30
14884;DHT22;7534;50.762;7.000;2024-02-21T10:05:48;14.20;53.90
14884;DHT22;7534;50.762;7.000;2024-02-21T10:08:16;14.20;54.40
14884;DHT22;7534;50.762;7.000;2024-02-21T10:10:45;14.10;54.30
14884;DHT22;7534;50.762;7.000;2024-02-21T10:13:21;14.00;54.20
14884;DHT22;7534;50.762;7.000;2024-02-21T10:15:59;14.10;54.40
14884;DHT22;7534;50.762;7.000;2024-02-21T10:18:29;14.30;54.30
14884;DHT22;7534;50.762;7.000;2024-02-21T10:21:04;14.30;54.20
14884;DHT22;7534;50.762;7.000;2024-02-21T10:23:48;14.30;54.30
14884;DHT22;7534;50.762;7.000;2024-02-21T10:26:17;14.30;54.40
14884;DHT22;7534;50.762;7.000;2024-02-21T10:28:44;14.20;53.80
14884;DHT22;7534;50.762;7.000;2024-02-21T10:31:24;14.10;54.20
14884;DHT22;7534;50.762;7.000;2024-02-21T10:34:00;14.10;55.50
14884;DHT22;7534;50.762;7.000;2024-02-21T10:36:30;14.20;54.60
14884;DHT22;7534;50.762;7.000;2024-02-21T10:38:57;14.20;53.40
14884;DHT22;7534;50.762;7.000;2024-02-21T10:41:23;14.20;53.30
14884;DHT22;7534;50.762;7.000;2024-02-21T10:43:54;14.30;54.20
14884;DHT22;7534;50.762;7.000;2024-02-21T10:46:21;14.30;54.20
14884;DHT22;7534;50.762;7.000;2024-02-21T10:48:57;14.40;54.20
14884;DHT22;7534;50.762;7.000;2024-02-21T10:51:32;14.60;54.30
14884;DHT22;7534;50.762;7.000;2024-02-21T10:56:55;14.70;53.40
14884;DHT22;7534;50.762;7.000;2024-02-21T10:59:23;14.80;52.50
14884;DHT22;7534;50.762;7.000;2024-02-21T11:01:49;14.70;52.70
14884;DHT22;7534;50.762;7.000;2024-02-21T11:04:15;14.80;51.90
14884;DHT22;7534;50.762;7.000;2024-02-21T11:06:42;14.60;53.20
14884;DHT22;7534;50.762;7.000;2024-02-21T11:09:11;14.60;52.60
14884;DHT22;7534;50.762;7.000;2024-02-21T11:11:41;14.70;52.60
14884;DHT22;7534;50.762;7.000;2024-02-21T11:14:18;14.80;52.70
14884;DHT22;7534;50.762;7.000;2024-02-21T11:16:45;14.80;53.10
14884;DHT22;7534;50.762;7.000;2024-02-21T11:19:22;14.90;52.70
14884;DHT22;7534;50.762;7.000;2024-02-21T11:21:49;14.70;52.30
14884;DHT22;7534;50.762;7.000;2024-02-21T11:24:31;14.60;53.30
14884;DHT22;7534;50.762;7.000;2024-02-21T11:27:18;14.60;52.60
14884;DHT22;7534;50.762;7.000;2024-02-21T11:29:49;14.60;53.30
14884;DHT22;7534;50.762;7.000;2024-02-21T11:32:20;14.60;53.00
14884;DHT22;7534;50.762;7.000;2024-02-21T11:35:00;14.60;53.50
14884;DHT22;7534;50.762;7.000;2024-02-21T11:37:28;14.60;53.40
14884;DHT22;7534;50.762;7.000;2024-02-21T11:39:55;14.40;52.80
14884;DHT22;7534;50.762;7.000;2024-02-21T11:42:21;14.30;53.70
14884;DHT22;7534;50.762;7.000;2024-02-21T11:44:47;14.20;53.50
14884;DHT22;7534;50.762;7.000;2024-02-21T11:47:14;14.20;54.20
14884;DHT22;7534;50.762;7.000;2024-02-21T11:49:48;14.20;54.00
14884;DHT22;7534;50.762;7.000;2024-02-21T11:52:15;14.30;53.90
14884;DHT22;7534;50.762;7.000;2024-02-21T11:54:44;14.20;54.00
14884;DHT22;7534;50.762;7.000;2024-02-21T11:57:10;14.10;54.70
14884;DHT22;7534;50.762;7.000;2024-02-21T11:59:40;14.10;55.30
14884;DHT22;7534;50.762;7.000;2024-02-21T12:02:06;14.10;55.10
14884;DHT22;7534;50.762;7.000;2024-02-21T12:04:33;14.10;55.00
14884;DHT22;7534;50.762;7.000;2024-02-21T12:06:59;13.80;55.00
14884;DHT22;7534;50.762;7.000;2024-02-21T12:09:26;13.70;56.00
14884;DHT22;7534;50.762;7.000;2024-02-21T12:12:03;13.50;56.30
14884;DHT22;7534;50.762;7.000;2024-02-21T12:14:31;13.50;57.30
14884;DHT22;7534;50.762;7.000;2024-02-21T12:16:59;13.50;56.70
14884;DHT22;7534;50.762;7.000;2024-02-21T12:19:26;13.60;56.80
14884;DHT22;7534;50.762;7.000;2024-02-21T12:21:52;13.70;57.00
14884;DHT22;7534;50.762;7.000;2024-02-21T12:24:27;13.70;56.60
14884;DHT22;7534;50.762;7.000;2024-02-21T12:26:55;13.80;56.50
14884;DHT22;7534;50.762;7.000;2024-02-21T12:29:22;13.60;56.40
14884;DHT22;7534;50.762;7.000;2024-02-21T12:31:50;13.60;56.50
14884;DHT22;7534;50.762;7.000;2024-02-21T12:34:16;13.60;56.90
14884;DHT22;7534;50.762;7.000;2024-02-21T12:36:43;13.50;56.40
14884;DHT22;7534;50.762;7.000;2024-02-21T12:39:10;13.50;57.10
14884;DHT22;7534;50.762;7.000;2024-02-21T12:41:36;13.60;57.30
14884;DHT22;7534;50.762;7.000;2024-02-21T12:44:06;13.70;56.90
14884;DHT22;7534;50.762;7.000;2024-02-21T12:46:35;13.60;55.90
14884;DHT22;7534;50.762;7.000;2024-02-21T12:49:04;13.50;56.30
14884;DHT22;7534;50.762;7.000;2024-02-21T12:51:31;13.50;56.70
14884;DHT22;7534;50.762;7.000;2024-02-21T12:53:57;13.50;56.20
14884;DHT22;7534;50.762;7.000;2024-02-21T12:56:23;13.50;56.30
14884;DHT22;7534;50.762;7.000;2024-02-21T12:58:49;13.60;56.50
14884;DHT22;7534;50.762;7.000;2024-02-21T13:01:16;13.50;56.40
14884;DHT22;7534;50.762;7.000;2024-02-21T13:03:42;13.50;56.30
14884;DHT22;7534;50.762;7.000;2024-02-21T13:06:08;13.20;56.90
14884;DHT22;7534;50.762;7.000;2024-02-21T13:08:36;13.20;57.90
14884;DHT22;7534;50.762;7.000;2024-02-21T13:11:02;13.30;57.70
14884;DHT22;7534;50.762;7.000;2024-02-21T13:13:29;13.30;57.60
14884;DHT22;7534;50.762;7.000;2024-02-21T13:15:55;13.30;57.40
14884;DHT22;7534;50.762;7.000;2024-02-21T13:18:21;13.30;57.90
14884;DHT22;7534;50.762;7.000;2024-02-21T13:20:47;13.20;57.20
14884;DHT22;7534;50.762;7.000;2024-02-21T13:23:13;13.20;57.50
14884;DHT22;7534;50.762;7.000;2024-02-21T13:25:39;13.00;57.60
14884;DHT22;7534;50.762;7.000;2024-02-21T13:28:05;13.00;57.30
14884;DHT22;7534;50.762;7.000;2024-02-21T13:30:30;12.90;57.60
14884;DHT22;7534;50.762;7.000;2024-02-21T13:32:56;12.90;57.60
14884;DHT22;7534;50.762;7.000;2024-02-21T13:35:22;12.80;57.20
14884;DHT22;7534;50.762;7.000;2024-02-21T13:37:47;12.80;57.50
14884;DHT22;7534;50.762;7.000;2024-02-21T13:40:14;12.70;58.00
14884;DHT22;7534;50.762;7.000;2024-02-21T13:42:40;12.70;58.30
14884;DHT22;7534;50.762;7.000;2024-02-21T13:45:06;12.70;59.10
14884;DHT22;7534;50.762;7.000;2024-02-21T13:47:35;12.70;58.70
14884;DHT22;7534;50.762;7.000;2024-02-21T13:50:05;12.70;58.50
14884;DHT22;7534;50.762;7.000;2024-02-21T13:52:40;12.70;57.80
14884;DHT22;7534;50.762;7.000;2024-02-21T13:55:06;12.70;57.80
14884;DHT22;7534;50.762;7.000;2024-02-21T13:57:38;12.60;58.30
14884;DHT22;7534;50.762;7.000;2024-02-21T14:00:04;12.60;58.20
14884;DHT22;7534;50.762;7.000;2024-02-21T14:02:31;12.50;58.10
14884;DHT22;7534;50.762;7.000;2024-02-21T14:04:57;12.50;57.90
14884;DHT22;7534;50.762;7.000;2024-02-21T14:07:22;12.60;57.00
14884;DHT22;7534;50.762;7.000;2024-02-21T14:09:49;12.50;56.90
14884;DHT22;7534;50.762;7.000;2024-02-21T14:12:15;12.50;57.50
14884;DHT22;7534;50.762;7.000;2024-02-21T14:14:43;12.70;57.30
14884;DHT22;7534;50.762;7.000;2024-02-21T14:17:09;12.80;56.70
14884;DHT22;7534;50.762;7.000;2024-02-21T14:19:35;12.90;56.70
14884;DHT22;7534;50.762;7.000;2024-02-21T14:22:01;12.90;57.00
14884;DHT22;7534;50.762;7.000;2024-02-21T14:24:27;13.00;55.70
14884;DHT22;7534;50.762;7.000;2024-02-21T14:26:54;12.90;56.80
14884;DHT22;7534;50.762;7.000;2024-02-21T14:29:21;12.80;57.00
14884;DHT22;7534;50.762;7.000;2024-02-21T14:31:47;12.80;57.30
14884;DHT22;7534;50.762;7.000;2024-02-21T14:34:14;12.80;57.20
14884;DHT22;7534;50.762;7.000;2024-02-21T14:36:39;12.80;57.60
14884;DHT22;7534;50.762;7.000;2024-02-21T14:39:06;12.80;57.40
14884;DHT22;7534;50.762;7.000;2024-02-21T14:41:31;12.80;56.50
14884;DHT22;7534;50.762;7.000;2024-02-21T14:43:57;12.80;56.90
14884;DHT22;7534;50.762;7.000;2024-02-21T14:46:26;12.80;56.70
14884;DHT22;7534;50.762;7.000;2024-02-21T14:48:57;12.80;57.90
14884;DHT22;7534;50.762;7.000;2024-02-21T14:51:23;12.80;56.30
14884;DHT22;7534;50.762;7.000;2024-02-21T14:53:49;12.80;57.50
14884;DHT22;7534;50.762;7.000;2024-02-21T14:56:15;12.60;58.00
14884;DHT22;7534;50.762;7.000;2024-02-21T14:58:41;12.60;58.00
14884;DHT22;7534;50.762;7.000;2024-02-21T15:01:07;12.50;57.70
14884;DHT22;7534;50.762;7.000;2024-02-21T15:03:33;12.50;57.50
14884;DHT22;7534;50.762;7.000;2024-02-21T15:05:59;12.50;56.90
14884;DHT22;7534;50.762;7.000;2024-02-21T15:08:26;12.60;56.50
14884;DHT22;7534;50.762;7.000;2024-02-21T15:10:53;12.60;56.40
14884;DHT22;7534;50.762;7.000;2024-02-21T15:13:19;12.50;56.90
14884;DHT22;7534;50.762;7.000;2024-02-21T15:15:46;12.50;56.10
14884;DHT22;7534;50.762;7.000;2024-02-21T15:18:13;12.50;55.70
14884;DHT22;7534;50.762;7.000;2024-02-21T15:20:42;12.50;55.80
14884;DHT22;7534;50.762;7.000;2024-02-21T15:23:08;12.50;54.60
14884;DHT22;7534;50.762;7.000;2024-02-21T15:25:33;12.40;54.50
14884;DHT22;7534;50.762;7.000;2024-02-21T15:27:59;12.30;54.70
14884;DHT22;7534;50.762;7.000;2024-02-21T15:30:25;12.20;55.50
14884;DHT22;7534;50.762;7.000;2024-02-21T15:32:52;12.20;55.50
14884;DHT22;7534;50.762;7.000;2024-02-21T15:35:20;12.10;55.20
14884;DHT22;7534;50.762;7.000;2024-02-21T15:37:46;12.00;55.60
14884;DHT22;7534;50.762;7.000;2024-02-21T15:40:13;11.90;55.70
14884;DHT22;7534;50.762;7.000;2024-02-21T15:42:40;11.90;56.40
14884;DHT22;7534;50.762;7.000;2024-02-21T15:45:06;11.80;56.70
14884;DHT22;7534;50.762;7.000;2024-02-21T15:47:32;11.70;57.20
14884;DHT22;7534;50.762;7.000;2024-02-21T15:49:58;11.70;57.10
14884;DHT22;7534;50.762;7.000;2024-02-21T15:52:27;11.60;57.50
14884;DHT22;7534;50.762;7.000;2024-02-21T15:54:52;11.60;57.40